Time;durP1;ratioP1;P1;durP2;ratioP2;P2;SDS_P1;SDS_P2;PMS_P1;PMS_P2;Temp;Humidity;BMP_temperature;BMP_pressure;BME280_temperature;BME280_humidity;BME280_pressure;Samples;Min_cycle;Max_cycle;Signal;HPM_P1;HPM_P2
2023/09/03 00:01:25;;;;;;;2.83;2.30;;;22.00;38.40;;;;;;10467367;28;20231;-76
2023/09/03 00:06:30;;;;;;;2.27;2.10;;;22.00;38.30;;;;;;10467545;28;20232;-76
2023/09/03 00:11:33;;;;;;;2.20;2.00;;;21.90;38.40;;;;;;10475741;28;20639;-77
2023/09/03 00:16:36;;;;;;;2.93;2.30;;;21.90;38.20;;;;;;10477434;28;20220;-76
2023/09/03 00:21:41;;;;;;;2.17;2.07;;;21.90;38.20;;;;;;10463297;28;20692;-76
2023/09/03 00:26:44;;;;;;;2.10;2.00;;;21.80;38.70;;;;;;10471906;28;20656;-76
2023/09/03 00:31:47;;;;;;;2.47;2.27;;;21.70;38.40;;;;;;10467013;28;20216;-76
2023/09/03 00:36:52;;;;;;;2.80;1.83;;;21.60;38.60;;;;;;10469864;28;20247;-76
2023/09/03 00:41:55;;;;;;;2.00;1.83;;;21.40;39.10;;;;;;10468991;28;20224;-76
2023/09/03 00:46:58;;;;;;;2.67;2.30;;;21.30;38.80;;;;;;10462018;28;20898;-77
2023/09/03 00:52:03;;;;;;;2.10;1.83;;;21.30;39.10;;;;;;10466434;28;20225;-76
2023/09/03 00:57:07;;;;;;;2.03;1.63;;;21.30;39.30;;;;;;10461716;28;20225;-76
2023/09/03 01:02:13;;;;;;;1.90;1.80;;;21.30;39.00;;;;;;10457691;28;20225;-77
2023/09/03 01:07:18;;;;;;;1.90;1.80;;;21.20;39.50;;;;;;10462835;28;20247;-76
2023/09/03 01:12:34;;;;;;;2.97;1.97;;;21.20;39.50;;;;;;10468055;28;20221;-76
2023/09/03 01:17:46;;;;;;;2.47;1.97;;;21.10;39.70;;;;;;10466650;28;20240;-76
2023/09/03 01:23:15;;;;;;;3.47;1.97;;;21.10;39.50;;;;;;10460556;28;20662;-76
2023/09/03 01:28:25;;;;;;;1.90;1.80;;;21.00;39.60;;;;;;10465877;28;20220;-77
2023/09/03 01:33:30;;;;;;;4.07;1.90;;;20.80;39.80;;;;;;10463118;28;20303;-77
2023/09/03 01:38:34;;;;;;;1.70;1.60;;;20.60;39.50;;;;;;10470177;28;20880;-76
2023/09/03 01:43:38;;;;;;;1.80;1.70;;;20.50;39.70;;;;;;10463059;28;20216;-76
2023/09/03 01:48:56;;;;;;;1.90;1.80;;;20.50;40.20;;;;;;10463437;28;20220;-76
2023/09/03 01:54:05;;;;;;;2.07;1.63;;;20.50;40.60;;;;;;10462424;28;20230;-76
2023/09/03 01:59:18;;;;;;;2.57;1.93;;;20.50;40.50;;;;;;10463982;28;20273;-76
2023/09/03 02:04:21;;;;;;;2.70;1.73;;;20.50;40.70;;;;;;10465820;28;20217;-76
2023/09/03 02:09:24;;;;;;;2.40;2.20;;;20.50;40.00;;;;;;10456913;28;20287;-76
2023/09/03 02:14:29;;;;;;;1.80;1.67;;;20.40;39.90;;;;;;10470857;28;20228;-76
2023/09/03 02:19:32;;;;;;;3.03;1.70;;;20.40;40.30;;;;;;10461013;28;20318;-76
2023/09/03 02:24:35;;;;;;;2.43;1.80;;;20.30;40.10;;;;;;10465620;28;20247;-78
2023/09/03 02:29:40;;;;;;;2.30;1.70;;;20.30;40.20;;;;;;10459382;28;20289;-76
2023/09/03 02:34:44;;;;;;;1.97;1.70;;;20.30;40.50;;;;;;10466272;28;20229;-76
2023/09/03 02:39:47;;;;;;;1.70;1.60;;;20.30;40.20;;;;;;10459143;28;20232;-76
2023/09/03 02:44:51;;;;;;;1.90;1.60;;;20.20;40.20;;;;;;10470953;28;20351;-76
2023/09/03 02:49:54;;;;;;;2.00;1.90;;;20.20;40.50;;;;;;10471516;28;20801;-76
2023/09/03 02:54:58;;;;;;;1.90;1.80;;;20.10;40.30;;;;;;10471814;28;20305;-76
2023/09/03 03:00:02;;;;;;;1.77;1.67;;;20.00;40.40;;;;;;10454226;28;20232;-76
2023/09/03 03:05:06;;;;;;;2.13;1.57;;;19.80;41.00;;;;;;10466734;28;20757;-76
2023/09/03 03:10:11;;;;;;;1.90;1.80;;;19.80;40.80;;;;;;10468107;28;20252;-76
2023/09/03 03:15:15;;;;;;;3.00;1.63;;;19.80;41.00;;;;;;10473871;28;20228;-76
2023/09/03 03:20:20;;;;;;;2.87;1.73;;;19.80;41.20;;;;;;10465024;28;20614;-76
2023/09/03 03:25:23;;;;;;;1.83;1.73;;;19.70;40.80;;;;;;10463474;28;20803;-76
2023/09/03 03:30:28;;;;;;;2.67;2.00;;;19.70;40.80;;;;;;10467870;28;20989;-76
2023/09/03 03:35:31;;;;;;;1.90;1.70;;;19.60;41.20;;;;;;10465640;28;20231;-76
2023/09/03 03:40:34;;;;;;;1.70;1.60;;;19.60;41.00;;;;;;10469991;28;20660;-76
2023/09/03 03:45:39;;;;;;;1.77;1.60;;;19.60;41.10;;;;;;10472409;28;20247;-76
2023/09/03 03:50:42;;;;;;;2.00;1.60;;;19.60;41.30;;;;;;10460299;28;20302;-76
2023/09/03 03:55:45;;;;;;;3.73;1.60;;;19.70;41.20;;;;;;10466729;28;20812;-77
2023/09/03 04:00:50;;;;;;;1.73;1.60;;;19.60;41.10;;;;;;10465414;28;20259;-76
2023/09/03 04:05:57;;;;;;;2.60;1.50;;;19.60;41.30;;;;;;10466928;28;20310;-76
2023/09/03 04:11:02;;;;;;;2.90;1.43;;;19.70;41.60;;;;;;10472443;28;20224;-76
2023/09/03 04:16:09;;;;;;;2.30;1.70;;;19.60;41.20;;;;;;10470612;28;20233;-76
2023/09/03 04:21:13;;;;;;;2.00;1.80;;;19.50;41.50;;;;;;10462418;28;20277;-76
2023/09/03 04:26:16;;;;;;;1.93;1.83;;;19.30;41.20;;;;;;10462745;28;20233;-76
2023/09/03 04:31:21;;;;;;;1.80;1.70;;;19.20;41.50;;;;;;10463317;28;20312;-76
2023/09/03 04:36:24;;;;;;;3.53;1.73;;;19.20;42.10;;;;;;10459520;28;20233;-76
2023/09/03 04:41:27;;;;;;;2.33;1.67;;;19.20;41.90;;;;;;10465485;28;20225;-76
2023/09/03 04:46:32;;;;;;;1.93;1.57;;;19.20;41.90;;;;;;10471976;28;20264;-76
2023/09/03 04:51:35;;;;;;;1.87;1.70;;;19.20;42.20;;;;;;10465999;28;20231;-76
2023/09/03 04:56:38;;;;;;;1.67;1.57;;;19.20;42.00;;;;;;10463301;28;20223;-76
2023/09/03 05:01:43;;;;;;;1.80;1.70;;;19.30;42.10;;;;;;10465908;28;20220;-76
2023/09/03 05:06:47;;;;;;;2.00;1.80;;;19.30;42.40;;;;;;10456814;28;20232;-76
2023/09/03 05:11:52;;;;;;;1.70;1.60;;;19.30;42.00;;;;;;10470311;28;20252;-76
2023/09/03 05:16:56;;;;;;;1.97;1.83;;;19.30;42.10;;;;;;10470157;28;20792;-76
2023/09/03 05:22:00;;;;;;;1.70;1.60;;;19.30;42.50;;;;;;10471691;28;20247;-76
2023/09/03 05:27:03;;;;;;;1.60;1.50;;;19.30;42.20;;;;;;10452750;28;20701;-76
2023/09/03 05:32:07;;;;;;;1.93;1.83;;;19.30;42.50;;;;;;10422222;28;20235;-76
2023/09/03 05:37:10;;;;;;;2.10;1.90;;;19.30;42.80;;;;;;10420886;28;20229;-76
2023/09/03 05:42:14;;;;;;;1.70;1.60;;;19.20;42.40;;;;;;10427562;28;20224;-76
2023/09/03 05:47:19;;;;;;;3.30;2.10;;;19.20;42.80;;;;;;10426113;28;20236;-76
2023/09/03 05:52:22;;;;;;;2.07;1.87;;;19.20;43.40;;;;;;10419464;28;20240;-76
2023/09/03 05:57:25;;;;;;;2.40;1.80;;;19.10;43.10;;;;;;10416551;28;20242;-76
2023/09/03 06:02:30;;;;;;;2.20;2.03;;;19.10;43.30;;;;;;10432850;28;20698;-76
2023/09/03 06:07:33;;;;;;;2.20;2.00;;;19.00;44.20;;;;;;10427311;28;20295;-76
2023/09/03 06:12:36;;;;;;;5.47;2.30;;;19.00;43.90;;;;;;10430254;28;20217;-76
2023/09/03 06:17:41;;;;;;;3.27;1.93;;;19.00;44.20;;;;;;10418856;28;20232;-76
2023/09/03 06:22:44;;;;;;;2.70;2.50;;;19.10;44.90;;;;;;10424961;28;20387;-76
2023/09/03 06:27:47;;;;;;;2.40;2.10;;;19.10;44.90;;;;;;10412117;28;20229;-76
2023/09/03 06:32:52;;;;;;;3.00;2.03;;;19.20;45.00;;;;;;10413604;28;20213;-76
2023/09/03 06:37:55;;;;;;;2.20;2.00;;;19.30;45.80;;;;;;10423265;28;20259;-76
2023/09/03 06:42:58;;;;;;;2.40;2.30;;;19.40;45.30;;;;;;10426314;28;20213;-76
2023/09/03 06:48:03;;;;;;;2.97;2.40;;;19.50;45.40;;;;;;10428925;28;20316;-76
2023/09/03 06:53:07;;;;;;;2.57;2.37;;;19.70;46.30;;;;;;10435732;28;20229;-76
2023/09/03 06:58:10;;;;;;;3.07;2.60;;;19.80;45.80;;;;;;10429506;28;20234;-76
2023/09/03 07:03:15;;;;;;;2.67;2.47;;;20.00;45.90;;;;;;10438086;28;20232;-76
2023/09/03 07:08:18;;;;;;;2.53;2.30;;;20.10;46.80;;;;;;10425476;28;20261;-76
2023/09/03 07:13:22;;;;;;;2.67;2.47;;;20.20;46.30;;;;;;10444333;28;20268;-76
2023/09/03 07:18:26;;;;;;;2.37;2.27;;;20.30;46.60;;;;;;10428275;28;20722;-77
2023/09/03 07:23:30;;;;;;;2.57;2.37;;;20.50;47.50;;;;;;10424389;28;20251;-76
2023/09/03 07:28:34;;;;;;;3.53;2.50;;;20.60;47.20;;;;;;10424416;28;20322;-76
2023/09/03 07:33:39;;;;;;;2.97;2.60;;;20.80;47.60;;;;;;10419482;28;20643;-76
2023/09/03 07:38:42;;;;;;;2.57;2.43;;;21.00;48.10;;;;;;10426122;28;20233;-76
2023/09/03 07:43:46;;;;;;;2.37;2.27;;;21.20;47.40;;;;;;10429455;28;20218;-76
2023/09/03 07:48:50;;;;;;;3.00;2.70;;;21.40;47.50;;;;;;10434444;28;20304;-76
2023/09/03 07:53:54;;;;;;;2.40;2.20;;;21.50;48.20;;;;;;10430819;28;20217;-76
2023/09/03 07:58:57;;;;;;;2.27;1.80;;;21.70;46.80;;;;;;10426758;28;20249;-76
2023/09/03 08:04:01;;;;;;;2.00;1.90;;;21.90;46.90;;;;;;10423002;28;20221;-77
2023/09/03 08:09:05;;;;;;;2.13;1.90;;;22.10;45.70;;;;;;10433937;28;20244;-76
2023/09/03 08:14:09;;;;;;;1.87;1.77;;;22.20;45.80;;;;;;10424253;28;20244;-76
2023/09/03 08:19:14;;;;;;;2.13;1.90;;;22.40;45.40;;;;;;10419724;28;20232;-76
2023/09/03 08:24:17;;;;;;;1.50;1.40;;;22.60;45.30;;;;;;10415381;28;20272;-76
2023/09/03 08:29:20;;;;;;;1.60;1.50;;;22.80;44.80;;;;;;10433778;28;20292;-75
2023/09/03 08:34:24;;;;;;;1.67;1.57;;;23.00;44.60;;;;;;10420407;28;20309;-76
2023/09/03 08:39:28;;;;;;;1.70;1.60;;;23.20;44.20;;;;;;10428140;28;20237;-76
2023/09/03 08:44:37;;;;;;;1.57;1.50;;;23.40;44.60;;;;;;10434317;28;20279;-76
2023/09/03 08:49:41;;;;;;;2.00;1.90;;;23.50;44.20;;;;;;10418608;28;20256;-76
2023/09/03 08:54:45;;;;;;;1.70;1.60;;;23.70;43.60;;;;;;10418321;28;20232;-75
2023/09/03 08:59:48;;;;;;;1.33;1.27;;;23.90;43.80;;;;;;10416800;28;20226;-75
2023/09/03 09:04:53;;;;;;;1.43;1.33;;;24.10;43.60;;;;;;10425388;28;20223;-75
2023/09/03 09:09:59;;;;;;;1.77;1.50;;;24.30;42.60;;;;;;10457084;28;20884;-74
2023/09/03 09:15:04;;;;;;;1.80;1.50;;;24.50;42.10;;;;;;10423775;28;20228;-75
2023/09/03 09:20:12;;;;;;;1.47;1.43;;;24.60;42.20;;;;;;10430734;28;20229;-74
2023/09/03 09:25:21;;;;;;;1.47;1.47;;;24.70;41.40;;;;;;10429142;28;20243;-74
2023/09/03 09:30:26;;;;;;;1.50;1.40;;;24.80;40.70;;;;;;10460616;28;20626;-74
2023/09/03 09:35:30;;;;;;;1.40;1.40;;;24.90;41.40;;;;;;10428121;28;20702;-74
2023/09/03 09:40:36;;;;;;;2.60;1.40;;;25.00;40.90;;;;;;10412626;28;20806;-73
2023/09/03 09:45:46;;;;;;;1.60;1.50;;;25.20;41.00;;;;;;10421357;28;20225;-73
2023/09/03 09:50:51;;;;;;;1.30;1.30;;;25.40;41.10;;;;;;10426091;28;20225;-74
2023/09/03 09:55:59;;;;;;;1.60;1.50;;;25.50;40.00;;;;;;10431524;28;20224;-73
2023/09/03 10:01:03;;;;;;;1.40;1.30;;;25.70;40.00;;;;;;10469337;28;20357;-73
2023/09/03 10:06:08;;;;;;;1.37;1.37;;;25.90;40.70;;;;;;10462530;28;20225;-74
2023/09/03 10:11:11;;;;;;;1.47;1.20;;;26.10;40.00;;;;;;10478132;28;20228;-75
2023/09/03 10:16:18;;;;;;;1.80;1.50;;;26.20;40.40;;;;;;10475618;28;20228;-74
2023/09/03 10:21:25;;;;;;;1.70;1.60;;;26.40;38.80;;;;;;10467287;28;21179;-75
2023/09/03 10:26:54;;;;;;;1.97;1.30;;;26.60;38.00;;;;;;10476240;28;20293;-74
2023/09/03 10:31:58;;;;;;;1.27;1.27;;;26.80;37.60;;;;;;10487478;28;20279;-75
2023/09/03 10:37:08;;;;;;;1.20;1.20;;;26.90;38.60;;;;;;10446885;28;20283;-74
2023/09/03 10:42:32;;;;;;;1.50;1.40;;;27.00;37.30;;;;;;10441701;28;20592;-74
2023/09/03 10:48:01;;;;;;;1.40;1.30;;;27.10;37.40;;;;;;10436352;28;20227;-74
2023/09/03 10:53:07;;;;;;;2.07;1.40;;;27.30;37.60;;;;;;10457240;28;20600;-74
2023/09/03 10:58:30;;;;;;;1.93;1.50;;;27.30;37.00;;;;;;10433711;28;20309;-74
2023/09/03 11:03:46;;;;;;;1.80;1.70;;;27.40;36.90;;;;;;10437687;28;20216;-74
2023/09/03 11:09:23;;;;;;;1.50;1.40;;;27.50;36.30;;;;;;10425827;28;20228;-74
2023/09/03 11:14:31;;;;;;;1.50;1.50;;;27.50;36.40;;;;;;10428897;28;20304;-74
2023/09/03 11:19:40;;;;;;;1.53;1.40;;;27.60;36.40;;;;;;10428456;28;20229;-74
2023/09/03 11:24:48;;;;;;;1.10;1.10;;;27.60;35.70;;;;;;10431492;28;20275;-73
2023/09/03 11:30:02;;;;;;;1.50;1.40;;;27.60;35.20;;;;;;10437465;28;20370;-74
2023/09/03 11:35:06;;;;;;;2.07;1.20;;;27.70;36.00;;;;;;10425908;28;20309;-74
2023/09/03 11:40:13;;;;;;;1.10;1.10;;;27.60;36.10;;;;;;10442236;28;20265;-74
2023/09/03 11:45:16;;;;;;;1.10;1.10;;;27.60;35.10;;;;;;10447457;28;20220;-74
2023/09/03 11:50:19;;;;;;;1.73;1.40;;;27.60;35.60;;;;;;10475838;28;20312;-74
2023/09/03 11:55:27;;;;;;;1.43;1.33;;;27.60;35.40;;;;;;10471932;28;20236;-74
2023/09/03 12:00:31;;;;;;;1.00;1.00;;;27.60;34.10;;;;;;10461507;28;20225;-74
2023/09/03 12:05:35;;;;;;;1.77;1.20;;;27.70;35.30;;;;;;10477630;28;20219;-74
2023/09/03 12:10:40;;;;;;;1.27;1.17;;;27.70;34.60;;;;;;10470965;28;20303;-74
2023/09/03 12:15:45;;;;;;;1.30;1.20;;;27.70;34.20;;;;;;10470480;28;20361;-74
2023/09/03 12:20:51;;;;;;;1.17;1.00;;;27.70;34.80;;;;;;10480396;28;20234;-74
2023/09/03 12:25:56;;;;;;;1.10;1.10;;;27.80;34.70;;;;;;10473245;28;20217;-74
2023/09/03 12:31:00;;;;;;;1.10;1.00;;;27.80;33.90;;;;;;10462891;28;20220;-74
2023/09/03 12:36:08;;;;;;;1.40;1.10;;;27.90;33.70;;;;;;10467624;28;20249;-74
2023/09/03 12:41:13;;;;;;;1.33;1.23;;;27.80;33.80;;;;;;10466174;28;20229;-74
2023/09/03 12:46:16;;;;;;;1.00;1.00;;;27.80;33.10;;;;;;10465091;28;20224;-74
2023/09/03 12:51:20;;;;;;;1.00;1.00;;;27.80;33.30;;;;;;10470016;28;20287;-74
2023/09/03 12:56:24;;;;;;;1.30;1.30;;;27.80;33.70;;;;;;10481269;28;20697;-74
2023/09/03 13:01:27;;;;;;;1.20;1.20;;;27.80;33.30;;;;;;10481679;28;20235;-74
2023/09/03 13:06:31;;;;;;;1.20;1.20;;;27.90;33.90;;;;;;10474668;28;20227;-73
2023/09/03 13:11:35;;;;;;;2.30;1.13;;;28.00;33.60;;;;;;10467870;28;20583;-73
2023/09/03 13:16:38;;;;;;;1.00;1.00;;;28.00;32.60;;;;;;10486085;28;20319;-75
2023/09/03 13:21:41;;;;;;;0.97;0.97;;;28.00;32.80;;;;;;10461101;28;20220;-74
2023/09/03 13:26:50;;;;;;;1.37;1.27;;;28.00;32.60;;;;;;10481531;28;20222;-74
2023/09/03 13:31:55;;;;;;;1.50;1.40;;;28.00;32.50;;;;;;10473206;28;20891;-75
2023/09/03 13:36:59;;;;;;;1.50;1.40;;;27.90;32.50;;;;;;10460955;28;20701;-75
2023/09/03 13:42:04;;;;;;;1.13;1.13;;;27.90;32.60;;;;;;10478821;28;20720;-74
2023/09/03 13:47:07;;;;;;;1.23;1.23;;;27.90;32.30;;;;;;10499524;28;20238;-74
2023/09/03 13:52:10;;;;;;;1.20;1.20;;;28.00;32.50;;;;;;10481483;28;20228;-74
2023/09/03 13:57:15;;;;;;;1.40;1.30;;;28.00;32.70;;;;;;10470492;28;20246;-74
2023/09/03 14:02:18;;;;;;;1.30;1.20;;;28.10;31.90;;;;;;10463571;28;20228;-74
2023/09/03 14:07:21;;;;;;;1.07;1.07;;;28.10;31.60;;;;;;10463711;28;20252;-75
2023/09/03 14:12:26;;;;;;;1.20;1.10;;;28.10;31.90;;;;;;10466909;28;20228;-75
2023/09/03 14:17:30;;;;;;;1.33;1.20;;;28.00;31.30;;;;;;10462698;28;20713;-75
2023/09/03 14:22:33;;;;;;;4.90;1.30;;;28.00;31.60;;;;;;10469946;28;20259;-75
2023/09/03 14:27:37;;;;;;;1.10;1.10;;;28.00;31.60;;;;;;10461621;28;20233;-75
2023/09/03 14:32:41;;;;;;;1.13;1.13;;;28.00;31.30;;;;;;10450905;28;20825;-75
2023/09/03 14:37:44;;;;;;;1.20;1.10;;;28.00;31.60;;;;;;10479925;28;20232;-75
2023/09/03 14:42:48;;;;;;;1.10;1.10;;;28.00;31.70;;;;;;10494989;28;20212;-75
2023/09/03 14:47:52;;;;;;;1.20;1.20;;;28.00;31.20;;;;;;10486320;28;20232;-75
2023/09/03 14:52:55;;;;;;;1.10;1.10;;;28.00;31.70;;;;;;10486344;28;20224;-75
2023/09/03 14:57:59;;;;;;;1.10;1.10;;;28.00;31.70;;;;;;10485946;28;20226;-75
2023/09/03 15:03:03;;;;;;;1.00;1.00;;;28.10;30.30;;;;;;10466378;28;20319;-75
2023/09/03 15:08:06;;;;;;;1.40;1.30;;;28.00;30.40;;;;;;10493557;28;20318;-75
2023/09/03 15:13:11;;;;;;;1.30;1.20;;;28.00;30.80;;;;;;10493599;28;20312;-75
2023/09/03 15:18:14;;;;;;;1.20;1.13;;;28.00;30.20;;;;;;10492731;28;20601;-76
2023/09/03 15:23:17;;;;;;;1.63;1.10;;;28.00;30.20;;;;;;10480622;28;20225;-75
2023/09/03 15:28:22;;;;;;;1.00;1.00;;;27.90;30.10;;;;;;10494019;28;20725;-76
2023/09/03 15:33:26;;;;;;;1.10;1.10;;;27.90;30.00;;;;;;10491590;28;20231;-75
2023/09/03 15:38:31;;;;;;;1.10;1.10;;;27.80;30.10;;;;;;10467555;28;20224;-79
2023/09/03 15:43:35;;;;;;;1.20;1.20;;;27.80;30.10;;;;;;10482081;28;20224;-74
2023/09/03 15:48:38;;;;;;;1.10;1.10;;;27.80;30.10;;;;;;10491491;28;20220;-75
2023/09/03 15:53:42;;;;;;;1.30;1.20;;;27.80;30.10;;;;;;10492822;28;20220;-75
2023/09/03 15:58:47;;;;;;;1.30;1.30;;;27.80;30.10;;;;;;10481400;28;20247;-76
2023/09/03 16:03:50;;;;;;;1.10;1.10;;;27.80;30.10;;;;;;10460125;28;20212;-75
2023/09/03 16:08:53;;;;;;;1.53;1.43;;;27.70;30.20;;;;;;10484841;28;20228;-76
2023/09/03 16:13:58;;;;;;;1.30;1.20;;;27.70;30.10;;;;;;10482633;28;20224;-76
2023/09/03 16:19:01;;;;;;;1.37;1.30;;;27.60;30.00;;;;;;10490594;28;20252;-75
2023/09/03 16:24:05;;;;;;;1.67;1.50;;;27.50;30.00;;;;;;10468431;28;20228;-75
2023/09/03 16:29:09;;;;;;;1.60;1.50;;;27.50;30.30;;;;;;10486243;28;20232;-75
2023/09/03 16:34:12;;;;;;;1.80;1.30;;;27.40;30.50;;;;;;10469377;28;20229;-76
2023/09/03 16:39:16;;;;;;;1.53;1.43;;;27.40;30.40;;;;;;10483389;28;20664;-75
2023/09/03 16:44:20;;;;;;;1.50;1.40;;;27.30;30.50;;;;;;10524220;28;20246;-75
2023/09/03 16:49:23;;;;;;;2.10;1.30;;;27.30;30.70;;;;;;10463559;28;20782;-76
2023/09/03 16:54:26;;;;;;;1.37;1.37;;;27.20;30.80;;;;;;10462801;28;20248;-75
2023/09/03 16:59:31;;;;;;;1.50;1.40;;;27.10;31.20;;;;;;10452205;28;20287;-76
2023/09/03 17:04:34;;;;;;;1.40;1.40;;;27.10;31.20;;;;;;10484077;28;20247;-75
2023/09/03 17:09:37;;;;;;;1.50;1.30;;;27.10;31.30;;;;;;10489022;28;20232;-76
2023/09/03 17:14:42;;;;;;;1.33;1.30;;;27.00;31.20;;;;;;10477316;28;20239;-76
2023/09/03 17:19:45;;;;;;;2.70;1.30;;;27.00;31.20;;;;;;10465217;28;20239;-75
2023/09/03 17:24:50;;;;;;;1.50;1.40;;;26.90;31.30;;;;;;10446995;28;20688;-76
2023/09/03 17:29:55;;;;;;;1.53;1.40;;;26.80;31.60;;;;;;10488447;28;20603;-75
2023/09/03 17:34:58;;;;;;;1.57;1.50;;;26.80;31.90;;;;;;10494170;28;20220;-76
2023/09/03 17:40:01;;;;;;;1.37;1.37;;;26.70;31.90;;;;;;10506064;28;20242;-76
2023/09/03 17:45:07;;;;;;;1.50;1.40;;;26.70;31.90;;;;;;10487701;28;20307;-76
2023/09/03 17:50:11;;;;;;;1.77;1.60;;;26.60;32.00;;;;;;10487796;28;20224;-75
2023/09/03 17:55:15;;;;;;;1.60;1.50;;;26.50;32.10;;;;;;10487365;28;20838;-75
2023/09/03 18:00:20;;;;;;;1.50;1.40;;;26.40;32.20;;;;;;10487294;28;20232;-75
2023/09/03 18:05:24;;;;;;;1.70;1.60;;;26.30;32.30;;;;;;10476455;28;20319;-75
2023/09/03 18:10:31;;;;;;;1.70;1.60;;;26.20;32.40;;;;;;10488304;28;20231;-75
2023/09/03 18:15:35;;;;;;;1.70;1.60;;;26.10;32.60;;;;;;10488585;28;20220;-75
2023/09/03 18:20:38;;;;;;;1.67;1.57;;;26.10;33.00;;;;;;10487389;28;20604;-74
2023/09/03 18:25:42;;;;;;;1.53;1.43;;;26.10;33.00;;;;;;10488708;28;20247;-75
2023/09/03 18:30:46;;;;;;;1.53;1.43;;;26.00;33.00;;;;;;10488104;28;20235;-74
2023/09/03 18:35:49;;;;;;;1.97;1.80;;;26.00;33.40;;;;;;10488432;28;20224;-75
2023/09/03 18:40:52;;;;;;;1.87;1.70;;;25.90;34.00;;;;;;10495494;28;20728;-75
2023/09/03 18:45:59;;;;;;;2.00;1.50;;;25.80;33.30;;;;;;10496599;28;20259;-75
2023/09/03 18:51:03;;;;;;;1.57;1.47;;;25.70;33.50;;;;;;10496394;28;20323;-75
2023/09/03 18:56:06;;;;;;;1.67;1.57;;;25.70;33.30;;;;;;10496193;28;20235;-76
2023/09/03 19:01:13;;;;;;;1.80;1.70;;;25.60;33.30;;;;;;10495219;28;20236;-73
2023/09/03 19:06:18;;;;;;;1.80;1.70;;;25.50;33.70;;;;;;10492549;28;20252;-76
2023/09/03 19:11:21;;;;;;;2.33;1.87;;;25.40;33.50;;;;;;10485545;28;20403;-75
2023/09/03 19:16:28;;;;;;;1.90;1.80;;;25.30;33.70;;;;;;10485297;28;20239;-75
2023/09/03 19:21:31;;;;;;;2.20;1.90;;;25.20;34.10;;;;;;10451868;28;20333;-74
2023/09/03 19:26:35;;;;;;;2.20;2.10;;;25.10;33.90;;;;;;10441917;28;20299;-75
2023/09/03 19:31:39;;;;;;;1.97;1.87;;;24.90;34.00;;;;;;10442961;28;20232;-75
2023/09/03 19:36:43;;;;;;;2.13;2.00;;;24.80;34.40;;;;;;10441786;28;20225;-75
2023/09/03 19:41:49;;;;;;;1.67;1.57;;;24.70;34.40;;;;;;10440277;28;20322;-75
2023/09/03 19:46:55;;;;;;;1.90;1.80;;;24.60;34.50;;;;;;10443256;28;20283;-75
2023/09/03 19:51:58;;;;;;;1.80;1.70;;;24.50;34.70;;;;;;10442255;28;20694;-75
2023/09/03 19:57:02;;;;;;;2.00;1.90;;;24.40;34.50;;;;;;10442364;28;20308;-75
2023/09/03 20:02:06;;;;;;;2.00;1.80;;;24.20;34.60;;;;;;10446001;28;20347;-75
2023/09/03 20:07:09;;;;;;;2.20;1.50;;;24.10;35.00;;;;;;10449617;28;20237;-75
2023/09/03 20:12:13;;;;;;;1.80;1.70;;;23.90;34.70;;;;;;10447479;28;20809;-75
2023/09/03 20:17:18;;;;;;;2.30;1.67;;;23.90;34.80;;;;;;10447290;28;20320;-74
2023/09/03 20:22:21;;;;;;;2.67;1.93;;;23.80;35.10;;;;;;10447314;28;20311;-75
2023/09/03 20:27:25;;;;;;;1.97;1.87;;;23.60;34.90;;;;;;10446963;28;20239;-75
2023/09/03 20:32:29;;;;;;;2.87;1.50;;;23.40;35.00;;;;;;10447222;28;20302;-75
2023/09/03 20:37:37;;;;;;;2.10;2.00;;;23.20;35.70;;;;;;10446999;28;20233;-75
2023/09/03 20:42:41;;;;;;;2.33;2.00;;;23.10;35.60;;;;;;10446161;28;20256;-75
2023/09/03 20:47:46;;;;;;;2.10;1.90;;;23.10;35.80;;;;;;10446832;28;20310;-75
2023/09/03 20:52:49;;;;;;;1.97;1.87;;;23.00;36.10;;;;;;10446304;28;20225;-75
2023/09/03 20:57:53;;;;;;;2.40;2.20;;;23.00;35.80;;;;;;10446070;28;20228;-75
2023/09/03 21:02:57;;;;;;;2.17;2.07;;;22.80;35.80;;;;;;10445221;28;20225;-75
2023/09/03 21:08:01;;;;;;;3.10;2.20;;;22.70;36.20;;;;;;10445729;28;20654;-75
2023/09/03 21:13:05;;;;;;;2.20;2.00;;;22.60;36.10;;;;;;10445506;28;20306;-75
2023/09/03 21:18:09;;;;;;;1.90;1.80;;;22.50;36.20;;;;;;10445279;28;20323;-75
2023/09/03 21:23:13;;;;;;;3.03;2.20;;;22.40;36.60;;;;;;10445270;28;20235;-75
2023/09/03 21:28:16;;;;;;;3.97;2.20;;;22.40;36.40;;;;;;10445454;28;20279;-75
2023/09/03 21:33:21;;;;;;;2.67;1.97;;;22.20;36.30;;;;;;10445046;28;20233;-75
2023/09/03 21:38:24;;;;;;;1.90;1.80;;;22.10;37.00;;;;;;10446537;28;20304;-75
2023/09/03 21:43:28;;;;;;;2.63;2.00;;;22.00;36.90;;;;;;10446904;28;20225;-74
2023/09/03 21:48:32;;;;;;;1.90;1.80;;;21.90;36.90;;;;;;10446764;28;20233;-74
2023/09/03 21:53:35;;;;;;;2.23;2.03;;;21.90;38.10;;;;;;10446398;28;20217;-74
2023/09/03 21:58:39;;;;;;;2.00;1.90;;;21.90;37.00;;;;;;10446276;28;20356;-74
2023/09/03 22:03:45;;;;;;;2.27;2.07;;;21.90;37.00;;;;;;10446510;28;20220;-74
2023/09/03 22:08:48;;;;;;;2.13;2.03;;;21.90;37.50;;;;;;10445920;28;20584;-74
2023/09/03 22:13:51;;;;;;;1.80;1.70;;;21.90;37.20;;;;;;10449712;28;20221;-74
2023/09/03 22:18:56;;;;;;;3.57;2.50;;;21.80;37.00;;;;;;10454130;28;20693;-74
2023/09/03 22:24:04;;;;;;;2.00;1.90;;;21.80;37.60;;;;;;10454554;28;20228;-75
2023/09/03 22:29:08;;;;;;;2.20;2.00;;;21.60;37.30;;;;;;10454486;28;20225;-74
2023/09/03 22:34:12;;;;;;;2.07;1.97;;;21.60;37.30;;;;;;10453768;28;20225;-74
2023/09/03 22:39:15;;;;;;;2.10;1.90;;;21.60;37.60;;;;;;10450927;28;20325;-74
2023/09/03 22:44:19;;;;;;;2.20;2.00;;;21.60;37.20;;;;;;10453665;28;20233;-74
2023/09/03 22:49:24;;;;;;;1.87;1.77;;;21.50;37.30;;;;;;10453394;28;20705;-74
2023/09/03 22:54:28;;;;;;;2.30;2.20;;;21.40;37.70;;;;;;10453208;28;20228;-74
2023/09/03 22:59:34;;;;;;;2.10;2.00;;;21.40;37.70;;;;;;10452720;28;20225;-74
2023/09/03 23:04:39;;;;;;;2.40;2.13;;;21.30;37.60;;;;;;10452504;28;20308;-74
2023/09/03 23:09:42;;;;;;;2.40;2.20;;;21.20;37.60;;;;;;10452443;28;20237;-74
2023/09/03 23:14:45;;;;;;;2.50;2.30;;;21.10;37.50;;;;;;10452326;28;20252;-74
2023/09/03 23:19:50;;;;;;;2.17;1.97;;;21.10;37.50;;;;;;10452075;28;20304;-74
2023/09/03 23:24:53;;;;;;;2.30;2.10;;;21.00;37.40;;;;;;10450289;28;20231;-74
2023/09/03 23:29:57;;;;;;;2.70;2.27;;;21.00;37.40;;;;;;10451482;28;20229;-74
2023/09/03 23:35:02;;;;;;;2.13;2.03;;;21.00;37.40;;;;;;10451554;28;20225;-74
2023/09/03 23:40:06;;;;;;;2.87;2.20;;;20.90;37.70;;;;;;10451554;28;20229;-75
2023/09/03 23:45:11;;;;;;;3.10;2.80;;;20.90;37.60;;;;;;10451893;28;20229;-74
2023/09/03 23:50:15;;;;;;;2.20;2.10;;;20.90;38.50;;;;;;10450597;28;20233;-74
2023/09/03 23:55:19;;;;;;;3.40;2.20;;;20.80;38.00;;;;;;10450729;28;20767;-74
